createdAt,value
2023-04-12T00:00:19.928Z,6.61
2023-04-12T00:01:21.721Z,6.32
2023-04-12T00:02:23.845Z,6.71
2023-04-12T00:03:25.866Z,7.05
2023-04-12T00:04:27.882Z,6.84
2023-04-12T00:05:29.780Z,7.03
2023-04-12T00:06:31.659Z,6.97
2023-04-12T00:07:33.496Z,6.61
2023-04-12T00:08:35.524Z,6.24
2023-04-12T00:09:37.478Z,6.17
2023-04-12T00:10:39.583Z,7.02
2023-04-12T00:11:41.450Z,7.82
2023-04-12T00:12:43.308Z,7.74
2023-04-12T00:13:45.101Z,7.18
2023-04-12T00:14:46.834Z,7.05
2023-04-12T00:15:48.612Z,6.92
2023-04-12T00:16:50.426Z,6.69
2023-04-12T00:17:52.310Z,6.71
2023-04-12T00:18:54.347Z,6.97
2023-04-12T00:19:56.151Z,6.66
2023-04-12T00:20:57.979Z,6.49
2023-04-12T00:21:59.786Z,7.52
2023-04-12T00:23:01.603Z,6.48
2023-04-12T00:24:03.404Z,6.47
2023-04-12T00:25:05.209Z,6.79
2023-04-12T00:26:07.516Z,6.24
2023-04-12T00:27:09.327Z,7.06
2023-04-12T00:28:11.166Z,6.95
2023-04-12T00:29:12.969Z,7.01
2023-04-12T00:30:15.075Z,7.41
2023-04-12T00:31:16.914Z,6.41
2023-04-12T00:32:18.708Z,6.84
2023-04-12T00:33:20.546Z,6.75
2023-04-12T00:34:22.382Z,6.91
2023-04-12T00:35:24.182Z,7.15
2023-04-12T00:36:25.996Z,6.80
2023-04-12T00:37:27.802Z,7.10
2023-04-12T00:38:29.631Z,6.77
2023-04-12T00:39:31.458Z,7.19
2023-04-12T00:40:33.297Z,6.87
2023-04-12T00:41:35.056Z,7.02
2023-04-12T00:42:36.871Z,6.59
2023-04-12T00:43:38.705Z,6.83
2023-04-12T00:44:40.517Z,7.26
2023-04-12T00:45:42.308Z,7.25
2023-04-12T00:46:44.280Z,7.47
2023-04-12T00:47:46.073Z,6.58
2023-04-12T00:48:47.986Z,7.11
2023-04-12T00:49:49.793Z,7.16
2023-04-12T00:50:51.574Z,6.37
2023-04-12T00:51:53.401Z,7.02
2023-04-12T00:52:55.200Z,6.99
2023-04-12T00:53:57.264Z,6.83
2023-04-12T00:54:59.186Z,6.84
2023-04-12T00:56:00.960Z,6.79
2023-04-12T00:57:02.771Z,6.55
2023-04-12T00:58:04.582Z,6.88
2023-04-12T00:59:06.427Z,7.37
2023-04-12T01:00:08.431Z,7.08
2023-04-12T01:01:10.242Z,7.09
2023-04-12T01:02:12.183Z,6.95
2023-04-12T01:03:14.279Z,6.92
2023-04-12T01:04:16.289Z,6.64
2023-04-12T01:05:18.061Z,6.99
2023-04-12T01:06:19.974Z,6.86
2023-04-12T01:07:21.771Z,7.18
2023-04-12T01:08:23.564Z,7.29
2023-04-12T01:09:25.419Z,7.23
2023-04-12T01:10:27.246Z,7.13
2023-04-12T01:11:29.034Z,7.17
2023-04-12T01:12:30.834Z,6.46
2023-04-12T01:13:32.633Z,7.48
2023-04-12T01:14:34.489Z,6.75
2023-04-12T01:15:36.305Z,6.94
2023-04-12T01:16:38.156Z,7.76
2023-04-12T01:17:40.125Z,7.22
2023-04-12T01:18:41.955Z,6.72
2023-04-12T01:19:43.783Z,6.69
2023-04-12T01:20:45.696Z,6.80
2023-04-12T01:21:47.513Z,6.76
2023-04-12T01:22:49.233Z,6.65
2023-04-12T01:23:51.042Z,6.47
2023-04-12T01:24:52.887Z,6.59
2023-04-12T01:25:54.744Z,7.10
2023-04-12T01:26:56.700Z,6.44
2023-04-12T01:27:58.511Z,7.28
2023-04-12T01:29:00.324Z,6.48
2023-04-12T01:30:02.157Z,7.21
2023-04-12T01:31:03.979Z,6.57
2023-04-12T01:32:05.859Z,6.89
2023-04-12T01:33:07.858Z,6.79
2023-04-12T01:34:09.737Z,7.06
2023-04-12T01:35:11.600Z,6.60
2023-04-12T01:36:13.588Z,7.66
2023-04-12T01:37:15.415Z,7.34
2023-04-12T01:38:17.219Z,7.03
2023-04-12T01:39:19.039Z,6.77
2023-04-12T01:40:20.888Z,6.05
2023-04-12T01:41:22.710Z,6.87
2023-04-12T01:42:24.501Z,6.81
2023-04-12T01:43:26.316Z,6.76
2023-04-12T01:44:28.156Z,6.29
2023-04-12T01:45:30.068Z,6.53
2023-04-12T01:46:31.914Z,6.74
2023-04-12T01:47:33.736Z,6.68
2023-04-12T01:48:35.516Z,6.87
2023-04-12T01:49:37.334Z,6.83
2023-04-12T01:50:39.393Z,6.99
2023-04-12T01:51:41.233Z,7.17
2023-04-12T01:52:43.052Z,7.58
2023-04-12T01:53:44.916Z,6.67
2023-04-12T01:54:46.686Z,6.11
2023-04-12T01:55:48.555Z,6.39
2023-04-12T01:56:50.352Z,6.16
2023-04-12T01:57:52.162Z,6.30
2023-04-12T01:58:53.980Z,6.24
2023-04-12T01:59:55.777Z,6.12
2023-04-12T02:00:57.798Z,6.15
2023-04-12T02:01:59.723Z,5.99
2023-04-12T02:03:01.637Z,6.06
2023-04-12T02:04:03.661Z,6.33
2023-04-12T02:05:05.553Z,6.74
2023-04-12T02:06:07.666Z,6.59
2023-04-12T02:07:09.489Z,6.31
2023-04-12T02:08:11.279Z,6.24
2023-04-12T02:09:13.100Z,6.11
2023-04-12T02:10:15.413Z,6.80
2023-04-12T02:11:17.265Z,6.44
2023-04-12T02:12:19.073Z,6.05
2023-04-12T02:13:20.890Z,6.19
2023-04-12T02:14:22.686Z,5.95
2023-04-12T02:15:24.504Z,6.15
2023-04-12T02:16:26.551Z,5.89
2023-04-12T02:17:28.414Z,6.16
2023-04-12T02:18:30.168Z,6.13
2023-04-12T02:19:31.865Z,6.22
2023-04-12T02:20:33.679Z,5.91
2023-04-12T02:21:35.526Z,6.60
2023-04-12T02:22:37.335Z,5.90
2023-04-12T02:23:39.146Z,6.63
2023-04-12T02:24:40.944Z,5.39
2023-04-12T02:25:42.659Z,5.77
2023-04-12T02:26:44.511Z,6.17
2023-04-12T02:27:46.325Z,6.64
2023-04-12T02:28:48.135Z,7.58
2023-04-12T02:29:49.935Z,8.35
2023-04-12T02:30:51.922Z,8.15
2023-04-12T02:31:53.802Z,7.25
2023-04-12T02:32:55.776Z,6.49
2023-04-12T02:33:57.820Z,6.63
2023-04-12T02:34:59.852Z,6.21
2023-04-12T02:36:01.688Z,6.71
2023-04-12T02:37:03.497Z,6.76
2023-04-12T02:38:05.315Z,6.11
2023-04-12T02:39:07.107Z,5.54
2023-04-12T02:40:09.618Z,6.73
2023-04-12T02:41:11.420Z,7.10
2023-04-12T02:42:13.231Z,6.93
2023-04-12T02:43:15.041Z,6.30
2023-04-12T02:44:16.869Z,6.87
2023-04-12T02:45:18.689Z,7.77
2023-04-12T02:46:20.503Z,8.00
2023-04-12T02:47:22.334Z,9.73
2023-04-12T02:48:24.150Z,8.36
2023-04-12T02:49:25.976Z,7.47
2023-04-12T02:50:28.282Z,6.61
2023-04-12T02:51:30.090Z,6.95
2023-04-12T02:52:31.934Z,6.19
2023-04-12T02:53:33.775Z,6.83
2023-04-12T02:54:35.610Z,6.16
2023-04-12T02:55:37.419Z,6.43
2023-04-12T02:56:39.241Z,5.81
2023-04-12T02:57:41.073Z,6.01
2023-04-12T02:58:43.073Z,5.68
2023-04-12T02:59:44.882Z,6.29
2023-04-12T03:00:46.729Z,6.31
2023-04-12T03:01:48.540Z,6.23
2023-04-12T03:02:50.625Z,6.23
2023-04-12T03:03:52.474Z,6.23
2023-04-12T03:04:54.308Z,6.23
2023-04-12T03:05:56.116Z,6.15
2023-04-12T03:06:57.903Z,6.41
2023-04-12T03:07:59.750Z,6.57
2023-04-12T03:09:01.594Z,6.29
2023-04-12T03:10:03.374Z,6.19
2023-04-12T03:11:05.197Z,6.07
2023-04-12T03:12:07.016Z,6.29
2023-04-12T03:13:08.841Z,7.75
2023-04-12T03:14:10.634Z,6.98
2023-04-12T03:15:12.495Z,6.49
2023-04-12T03:16:14.569Z,6.06
2023-04-12T03:17:16.302Z,6.90
2023-04-12T03:18:18.140Z,6.93
2023-04-12T03:19:19.956Z,7.33
2023-04-12T03:20:21.777Z,9.69
2023-04-12T03:21:23.618Z,8.65
2023-04-12T03:22:25.416Z,8.00
2023-04-12T03:23:27.250Z,8.11
2023-04-12T03:24:29.062Z,7.07
2023-04-12T03:25:30.880Z,6.38
2023-04-12T03:26:32.686Z,6.02
2023-04-12T03:27:34.485Z,5.90
2023-04-12T03:28:36.315Z,6.58
2023-04-12T03:29:38.214Z,5.74
2023-04-12T03:30:40.046Z,6.21
2023-04-12T03:31:41.936Z,6.28
2023-04-12T03:32:43.715Z,5.95
2023-04-12T03:33:45.626Z,5.83
2023-04-12T03:34:47.443Z,5.97
2023-04-12T03:35:49.317Z,6.43
2023-04-12T03:36:51.091Z,5.53
2023-04-12T03:37:52.910Z,5.51
2023-04-12T03:38:54.950Z,5.69
2023-04-12T03:39:56.814Z,6.10
2023-04-12T03:40:58.626Z,5.92
2023-04-12T03:42:00.522Z,6.49
2023-04-12T03:43:02.394Z,5.79
2023-04-12T03:44:04.277Z,5.68
2023-04-12T03:45:06.078Z,5.16
2023-04-12T03:46:08.005Z,5.17
2023-04-12T03:47:09.788Z,5.48
2023-04-12T03:48:11.603Z,5.01
2023-04-12T03:49:13.429Z,5.52
2023-04-12T03:50:15.548Z,5.54
2023-04-12T03:51:17.432Z,5.31
2023-04-12T03:52:19.230Z,5.29
2023-04-12T03:53:21.026Z,4.63
2023-04-12T03:54:22.871Z,4.58
2023-04-12T03:55:24.689Z,6.11
2023-04-12T03:56:26.486Z,4.89
2023-04-12T03:57:28.291Z,5.66
2023-04-12T03:58:30.115Z,4.91
2023-04-12T03:59:31.965Z,5.32
2023-04-12T04:00:33.776Z,5.02
2023-04-12T04:01:35.766Z,4.89
2023-04-12T04:02:37.654Z,5.08
2023-04-12T04:03:39.589Z,4.97
2023-04-12T04:04:41.569Z,4.97
2023-04-12T04:05:43.445Z,5.48
2023-04-12T04:06:45.251Z,6.43
2023-04-12T04:07:47.061Z,5.31
2023-04-12T04:08:48.871Z,4.93
2023-04-12T04:09:50.719Z,4.88
2023-04-12T04:10:52.544Z,5.07
2023-04-12T04:11:54.356Z,4.86
2023-04-12T04:12:56.197Z,5.16
2023-04-12T04:13:58.195Z,5.21
2023-04-12T04:15:00.145Z,4.94
2023-04-12T04:16:01.990Z,4.99
2023-04-12T04:17:03.772Z,5.38
2023-04-12T04:18:05.792Z,5.37
2023-04-12T04:19:07.635Z,5.59
2023-04-12T04:20:09.982Z,5.02
2023-04-12T04:21:11.804Z,4.87
2023-04-12T04:22:13.613Z,5.64
2023-04-12T04:23:15.420Z,5.65
2023-04-12T04:24:17.234Z,4.97
2023-04-12T04:25:19.072Z,5.46
2023-04-12T04:26:20.891Z,5.99
2023-04-12T04:27:22.710Z,6.01
2023-04-12T04:28:24.508Z,5.82
2023-04-12T04:29:26.314Z,6.03
2023-04-12T04:30:28.258Z,5.73
2023-04-12T04:31:30.088Z,5.80
2023-04-12T04:32:31.950Z,5.76
2023-04-12T04:33:33.800Z,5.30
2023-04-12T04:34:35.623Z,5.84
2023-04-12T04:35:37.521Z,5.53
2023-04-12T04:36:39.281Z,5.38
2023-04-12T04:37:41.115Z,4.87
2023-04-12T04:38:42.945Z,4.71
2023-04-12T04:39:44.759Z,5.37
2023-04-12T04:40:46.732Z,4.65
2023-04-12T04:41:48.541Z,4.79
2023-04-12T04:42:50.466Z,5.60
2023-04-12T04:43:52.243Z,6.00
2023-04-12T04:44:54.150Z,4.91
2023-04-12T04:45:56.235Z,5.23
2023-04-12T04:46:58.081Z,4.78
2023-04-12T04:47:59.985Z,5.32
2023-04-12T04:49:01.812Z,5.03
2023-04-12T04:50:03.616Z,4.75
2023-04-12T04:51:05.437Z,4.55
2023-04-12T04:52:07.292Z,4.74
2023-04-12T04:53:09.102Z,5.81
2023-04-12T04:54:10.940Z,5.24
2023-04-12T04:55:12.725Z,5.17
2023-04-12T04:56:14.799Z,5.17
2023-04-12T04:57:16.609Z,5.09
2023-04-12T04:58:18.430Z,4.72
2023-04-12T04:59:20.224Z,4.66
2023-04-12T05:00:22.042Z,4.55
2023-04-12T05:01:23.997Z,4.76
2023-04-12T05:02:26.037Z,4.44
2023-04-12T05:03:30.245Z,5.01
2023-04-12T05:04:31.665Z,4.33
2023-04-12T05:05:33.476Z,4.69
2023-04-12T05:06:35.382Z,5.45
2023-04-12T05:07:37.188Z,4.82
2023-04-12T05:08:39.029Z,4.62
2023-04-12T05:09:40.850Z,4.36
2023-04-12T05:10:42.783Z,4.03
2023-04-12T05:11:44.634Z,4.64
2023-04-12T05:12:46.450Z,4.31
2023-04-12T05:13:48.298Z,4.79
2023-04-12T05:14:51.757Z,4.36
2023-04-12T05:15:53.698Z,4.86
2023-04-12T05:16:55.596Z,4.47
2023-04-12T05:17:57.509Z,4.41
2023-04-12T05:18:59.447Z,4.81
2023-04-12T05:20:01.186Z,4.51
2023-04-12T05:21:02.987Z,4.51
2023-04-12T05:22:05.045Z,4.41
2023-04-12T05:23:06.861Z,4.89
2023-04-12T05:24:08.697Z,4.94
2023-04-12T05:25:10.484Z,4.59
2023-04-12T05:26:12.579Z,5.03
2023-04-12T05:27:14.426Z,4.15
2023-04-12T05:28:16.240Z,6.05
2023-04-12T05:29:18.062Z,4.39
2023-04-12T05:30:19.996Z,4.54
2023-04-12T05:31:21.872Z,4.69
2023-04-12T05:32:23.764Z,4.02
2023-04-12T05:33:25.587Z,4.89
2023-04-12T05:34:27.414Z,4.69
2023-04-12T05:35:29.247Z,5.56
2023-04-12T05:36:31.028Z,8.31
2023-04-12T05:37:32.876Z,5.99
2023-04-12T05:38:34.697Z,4.85
2023-04-12T05:39:36.502Z,4.52
2023-04-12T05:40:38.419Z,6.04
2023-04-12T05:41:40.240Z,5.07
2023-04-12T05:42:42.100Z,6.35
2023-04-12T05:43:43.910Z,5.48
2023-04-12T05:44:46.954Z,4.83
2023-04-12T05:45:49.407Z,4.86
2023-04-12T05:46:51.567Z,4.85
2023-04-12T05:47:53.510Z,4.31
2023-04-12T05:48:55.537Z,4.53
2023-04-12T05:49:57.488Z,4.45
2023-04-12T05:50:59.396Z,5.19
2023-04-12T05:52:01.235Z,5.13
2023-04-12T05:53:03.092Z,7.23
2023-04-12T05:54:04.920Z,6.57
2023-04-12T05:55:06.773Z,5.39
2023-04-12T05:56:09.073Z,4.75
2023-04-12T05:57:10.882Z,4.75
2023-04-12T05:58:12.724Z,4.81
2023-04-12T05:59:14.546Z,4.69
2023-04-12T06:00:16.422Z,4.73
2023-04-12T06:01:18.226Z,4.83
2023-04-12T06:02:20.140Z,4.81
2023-04-12T06:03:22.204Z,4.61
2023-04-12T06:04:29.828Z,4.93
2023-04-12T06:05:27.766Z,5.08
2023-04-12T06:06:29.570Z,4.55
2023-04-12T06:07:31.360Z,4.69
2023-04-12T06:08:35.423Z,4.81
2023-04-12T06:09:36.978Z,4.91
2023-04-12T06:10:38.985Z,4.62
2023-04-12T06:11:40.805Z,4.57
2023-04-12T06:12:42.643Z,4.69
2023-04-12T06:13:44.483Z,4.95
2023-04-12T06:14:46.272Z,4.20
2023-04-12T06:15:48.117Z,4.97
2023-04-12T06:16:49.898Z,4.44
2023-04-12T06:17:51.830Z,8.00
2023-04-12T06:18:53.816Z,6.51
2023-04-12T06:19:55.653Z,4.90
2023-04-12T06:20:57.477Z,5.27
2023-04-12T06:21:59.290Z,4.82
2023-04-12T06:23:01.112Z,5.04
2023-04-12T06:24:02.948Z,4.80
2023-04-12T06:25:04.792Z,4.43
2023-04-12T06:26:06.691Z,4.86
2023-04-12T06:27:08.496Z,5.59
2023-04-12T06:28:10.333Z,5.83
2023-04-12T06:29:12.197Z,5.55
2023-04-12T06:30:14.212Z,5.64
2023-04-12T06:31:16.048Z,5.19
2023-04-12T06:32:17.927Z,4.99
2023-04-12T06:33:19.778Z,5.51
2023-04-12T06:34:21.630Z,4.77
2023-04-12T06:35:23.423Z,5.84
2023-04-12T06:36:25.220Z,5.17
2023-04-12T06:37:27.031Z,5.17
2023-04-12T06:38:28.852Z,5.64
2023-04-12T06:39:30.718Z,5.81
2023-04-12T06:40:32.519Z,5.25
2023-04-12T06:41:34.334Z,4.90
2023-04-12T06:42:36.139Z,5.15
2023-04-12T06:43:37.956Z,5.23
2023-04-12T06:44:39.803Z,4.93
2023-04-12T06:45:41.610Z,5.54
2023-04-12T06:46:43.534Z,4.83
2023-04-12T06:47:45.452Z,5.39
2023-04-12T06:48:47.253Z,4.86
2023-04-12T06:49:49.127Z,5.01
2023-04-12T06:50:50.923Z,4.75
2023-04-12T06:51:52.746Z,5.37
2023-04-12T06:52:54.567Z,5.15
2023-04-12T06:53:56.391Z,5.46
2023-04-12T06:54:58.208Z,4.59
2023-04-12T06:56:00.035Z,5.11
2023-04-12T06:57:01.852Z,4.94
2023-04-12T06:58:03.657Z,4.83
2023-04-12T06:59:05.515Z,4.66
2023-04-12T07:00:07.866Z,4.65
2023-04-12T07:01:09.739Z,5.66
2023-04-12T07:02:11.657Z,4.69
2023-04-12T07:03:13.466Z,5.24
2023-04-12T07:04:15.415Z,6.05
2023-04-12T07:05:17.270Z,5.65
2023-04-12T07:06:25.602Z,5.98
2023-04-12T07:07:22.706Z,6.18
2023-04-12T07:08:24.410Z,5.33
2023-04-12T07:09:26.223Z,6.23
2023-04-12T07:10:28.069Z,6.08
2023-04-12T07:11:29.872Z,4.89
2023-04-12T07:12:31.726Z,5.49
2023-04-12T07:13:33.536Z,4.83
2023-04-12T07:14:35.353Z,5.67
2023-04-12T07:15:37.215Z,5.79
2023-04-12T07:16:39.059Z,6.00
2023-04-12T07:17:40.857Z,5.45
2023-04-12T07:18:42.619Z,5.77
2023-04-12T07:19:44.450Z,5.81
2023-04-12T07:20:46.305Z,6.26
2023-04-12T07:21:48.096Z,5.04
2023-04-12T07:22:49.904Z,5.49
2023-04-12T07:23:51.762Z,5.31
2023-04-12T07:24:53.621Z,5.19
2023-04-12T07:25:55.425Z,5.34
2023-04-12T07:26:57.373Z,4.92
2023-04-12T07:27:59.197Z,4.41
2023-04-12T07:29:01.010Z,4.78
2023-04-12T07:30:03.022Z,4.89
2023-04-12T07:31:04.922Z,4.37
2023-04-12T07:32:06.738Z,4.45
2023-04-12T07:33:19.291Z,4.01
2023-04-12T07:34:12.281Z,4.54
2023-04-12T07:35:14.163Z,4.45
2023-04-12T07:36:16.064Z,5.07
2023-04-12T07:37:17.826Z,4.22
2023-04-12T07:38:19.643Z,4.67
2023-04-12T07:39:21.492Z,4.32
2023-04-12T07:40:23.347Z,5.24
2023-04-12T07:41:25.180Z,3.95
2023-04-12T07:42:26.969Z,3.96
2023-04-12T07:43:28.776Z,4.31
2023-04-12T07:44:31.622Z,4.99
2023-04-12T07:45:33.353Z,4.35
2023-04-12T07:46:35.249Z,4.51
2023-04-12T07:47:37.006Z,4.67
2023-04-12T07:48:38.900Z,4.54
2023-04-12T07:49:40.722Z,5.54
2023-04-12T07:50:42.592Z,6.71
2023-04-12T07:51:44.443Z,6.29
2023-04-12T07:52:46.244Z,5.35
2023-04-12T07:53:48.055Z,5.24
2023-04-12T07:54:49.868Z,5.65
2023-04-12T07:55:51.737Z,5.43
2023-04-12T07:56:53.580Z,4.94
2023-04-12T07:57:55.391Z,5.83
2023-04-12T07:58:57.592Z,5.25
2023-04-12T07:59:59.758Z,4.57
2023-04-12T08:01:01.754Z,4.87
2023-04-12T08:02:03.826Z,4.29
2023-04-12T08:03:05.891Z,4.54
2023-04-12T08:04:07.881Z,4.27
2023-04-12T08:05:09.834Z,4.63
2023-04-12T08:06:11.798Z,5.01
2023-04-12T08:07:13.687Z,4.63
2023-04-12T08:08:15.511Z,4.59
2023-04-12T08:09:17.206Z,4.89
2023-04-12T08:10:19.025Z,4.39
2023-04-12T08:11:20.829Z,4.54
2023-04-12T08:12:22.653Z,5.33
2023-04-12T08:13:24.500Z,6.01
2023-04-12T08:14:26.329Z,4.86
2023-04-12T08:15:28.159Z,5.67
2023-04-12T08:16:29.942Z,5.48
2023-04-12T08:17:32.080Z,5.65
2023-04-12T08:18:33.898Z,5.61
2023-04-12T08:19:35.706Z,6.43
2023-04-12T08:20:37.505Z,5.36
2023-04-12T08:21:39.336Z,5.39
2023-04-12T08:22:41.172Z,5.54
2023-04-12T08:23:42.997Z,5.72
2023-04-12T08:24:44.798Z,5.54
2023-04-12T08:25:46.608Z,5.33
2023-04-12T08:26:48.465Z,5.11
2023-04-12T08:27:50.285Z,5.89
2023-04-12T08:28:52.111Z,5.29
2023-04-12T08:29:53.922Z,5.06
2023-04-12T08:30:55.762Z,7.00
2023-04-12T08:31:57.551Z,5.87
2023-04-12T08:32:59.442Z,10.25
2023-04-12T08:34:01.206Z,5.83
2023-04-12T08:35:03.008Z,5.71
2023-04-12T08:36:05.039Z,5.59
2023-04-12T08:37:06.820Z,6.00
2023-04-12T08:38:08.676Z,5.66
2023-04-12T08:39:10.497Z,5.40
2023-04-12T08:40:12.626Z,5.64
2023-04-12T08:41:15.240Z,5.66
2023-04-12T08:42:17.345Z,6.03
2023-04-12T08:43:19.179Z,5.65
2023-04-12T08:44:21.003Z,5.74
2023-04-12T08:45:22.866Z,6.95
2023-04-12T08:46:24.674Z,6.69
2023-04-12T08:47:26.492Z,6.29
2023-04-12T08:48:28.348Z,7.67
2023-04-12T08:49:30.170Z,6.14
2023-04-12T08:50:32.030Z,6.10
2023-04-12T08:51:33.858Z,6.18
2023-04-12T08:52:35.657Z,7.75
2023-04-12T08:53:37.549Z,6.60
2023-04-12T08:54:39.375Z,6.85
2023-04-12T08:55:41.166Z,6.70
2023-04-12T08:56:42.982Z,6.73
2023-04-12T08:57:44.773Z,6.50
2023-04-12T08:58:46.732Z,6.48
2023-04-12T08:59:48.643Z,6.75
2023-04-12T09:00:50.551Z,6.44
2023-04-12T09:01:52.419Z,6.87
2023-04-12T09:02:54.412Z,6.41
2023-04-12T09:03:56.434Z,5.97
2023-04-12T09:04:58.652Z,5.99
2023-04-12T09:06:00.503Z,6.20
2023-04-12T09:07:02.331Z,6.28
2023-04-12T09:08:04.170Z,6.21
2023-04-12T09:09:08.316Z,5.67
2023-04-12T09:10:10.608Z,6.33
2023-04-12T09:11:12.422Z,6.31
2023-04-12T09:12:14.229Z,6.11
2023-04-12T09:13:16.037Z,7.05
2023-04-12T09:14:17.869Z,6.33
2023-04-12T09:15:19.718Z,6.49
2023-04-12T09:16:21.562Z,6.31
2023-04-12T09:17:23.388Z,6.96
2023-04-12T09:18:25.298Z,6.83
2023-04-12T09:19:27.117Z,6.28
2023-04-12T09:20:29.063Z,6.34
2023-04-12T09:21:30.888Z,7.03
2023-04-12T09:22:32.704Z,6.55
2023-04-12T09:23:34.498Z,6.37
2023-04-12T09:24:36.338Z,8.03
2023-04-12T09:25:38.143Z,9.61
2023-04-12T09:26:40.066Z,10.57
2023-04-12T09:27:41.866Z,7.65
2023-04-12T09:28:43.676Z,6.47
2023-04-12T09:29:45.527Z,7.02
2023-04-12T09:30:47.331Z,7.29
2023-04-12T09:31:49.231Z,7.51
2023-04-12T09:32:51.058Z,7.44
2023-04-12T09:33:52.950Z,7.58
2023-04-12T09:34:54.817Z,7.10
2023-04-12T09:35:56.629Z,7.37
2023-04-12T09:36:58.441Z,7.64
2023-04-12T09:38:00.226Z,7.52
2023-04-12T09:39:02.238Z,7.73
2023-04-12T09:40:04.197Z,8.21
2023-04-12T09:41:05.996Z,7.77
2023-04-12T09:42:14.829Z,8.00
2023-04-12T09:43:11.412Z,8.19
2023-04-12T09:44:13.231Z,8.17
2023-04-12T09:45:15.130Z,8.41
2023-04-12T09:46:16.982Z,7.54
2023-04-12T09:47:18.804Z,8.12
2023-04-12T09:48:20.652Z,7.99
2023-04-12T09:49:22.383Z,7.82
2023-04-12T09:50:24.185Z,8.66
2023-04-12T09:51:25.899Z,7.99
2023-04-12T09:52:27.713Z,9.45
2023-04-12T09:53:29.510Z,8.69
2023-04-12T09:54:31.335Z,8.37
2023-04-12T09:55:33.160Z,8.29
2023-04-12T09:56:34.964Z,8.59
2023-04-12T09:57:36.808Z,8.34
2023-04-12T09:58:38.617Z,8.58
2023-04-12T09:59:40.441Z,8.49
2023-04-12T10:00:42.309Z,8.14
2023-04-12T10:01:44.189Z,8.77
2023-04-12T10:02:47.079Z,8.13
2023-04-12T10:03:49.662Z,8.19
2023-04-12T10:04:51.654Z,8.45
2023-04-12T10:05:53.528Z,8.31
2023-04-12T10:06:55.348Z,8.42
2023-04-12T10:07:57.132Z,9.75
2023-04-12T10:08:59.092Z,8.26
2023-04-12T10:10:00.993Z,8.76
2023-04-12T10:11:02.861Z,8.45
2023-04-12T10:12:04.701Z,8.45
2023-04-12T10:13:06.502Z,8.27
2023-04-12T10:14:08.296Z,8.44
2023-04-12T10:15:10.489Z,8.36
2023-04-12T10:16:12.594Z,8.48
2023-04-12T10:17:14.352Z,7.90
2023-04-12T10:18:16.183Z,7.81
2023-04-12T10:19:17.989Z,8.03
2023-04-12T10:20:19.921Z,9.01
2023-04-12T10:21:21.738Z,8.09
2023-04-12T10:22:23.561Z,8.15
2023-04-12T10:23:25.396Z,8.73
2023-04-12T10:24:27.172Z,8.51
2023-04-12T10:25:28.889Z,8.54
2023-04-12T10:26:30.719Z,8.36
2023-04-12T10:27:32.528Z,8.58
2023-04-12T10:28:34.357Z,8.63
2023-04-12T10:29:36.244Z,8.11
2023-04-12T10:30:38.239Z,9.41
2023-04-12T10:31:40.849Z,8.14
2023-04-12T10:32:42.758Z,8.48
2023-04-12T10:33:44.623Z,8.77
2023-04-12T10:34:46.509Z,8.10
2023-04-12T10:35:48.417Z,9.32
2023-04-12T10:36:50.322Z,9.45
2023-04-12T10:37:52.305Z,9.11
2023-04-12T10:38:54.109Z,9.65
2023-04-12T10:39:55.991Z,8.79
2023-04-12T10:40:57.809Z,8.16
2023-04-12T10:41:59.678Z,7.76
2023-04-12T10:43:01.758Z,8.55
2023-04-12T10:44:03.662Z,8.81
2023-04-12T10:45:05.509Z,8.87
2023-04-12T10:46:07.598Z,8.03
2023-04-12T10:47:09.526Z,8.54
2023-04-12T10:48:11.482Z,8.68
2023-04-12T10:49:13.328Z,9.23
2023-04-12T10:50:15.427Z,8.33
2023-04-12T10:51:17.209Z,8.02
2023-04-12T10:52:19.102Z,7.66
2023-04-12T10:53:20.971Z,7.73
2023-04-12T10:54:22.823Z,9.05
2023-04-12T10:55:24.602Z,9.22
2023-04-12T10:56:26.407Z,9.96
2023-04-12T10:57:28.813Z,9.64
2023-04-12T10:58:30.686Z,9.63
2023-04-12T10:59:46.925Z,10.35
2023-04-12T11:00:36.264Z,11.71
2023-04-12T11:01:39.156Z,10.26
2023-04-12T11:02:41.799Z,10.84
2023-04-12T11:03:43.812Z,10.75
2023-04-12T11:04:45.808Z,12.31
2023-04-12T11:05:47.880Z,11.27
2023-04-12T11:06:49.810Z,9.39
2023-04-12T11:07:51.739Z,9.96
2023-04-12T11:08:53.616Z,9.72
2023-04-12T11:09:55.470Z,10.19
2023-04-12T11:10:57.408Z,10.45
2023-04-12T11:11:59.252Z,10.66
2023-04-12T11:13:01.175Z,8.97
2023-04-12T11:14:03.198Z,8.41
2023-04-12T11:15:05.137Z,9.18
2023-04-12T11:16:07.552Z,8.53
2023-04-12T11:17:09.588Z,8.25
2023-04-12T11:18:11.698Z,8.17
2023-04-12T11:19:13.694Z,8.52
2023-04-12T11:20:15.535Z,9.13
2023-04-12T11:21:17.368Z,8.18
2023-04-12T11:22:19.237Z,8.47
2023-04-12T11:23:21.096Z,8.67
2023-04-12T11:24:22.980Z,9.49
2023-04-12T11:25:24.907Z,8.55
2023-04-12T11:26:26.803Z,8.49
2023-04-12T11:27:28.691Z,9.04
2023-04-12T11:28:32.451Z,9.85
2023-04-12T11:29:34.234Z,9.77
2023-04-12T11:30:36.125Z,9.80
2023-04-12T11:31:37.919Z,9.81
2023-04-12T11:32:39.795Z,9.29
2023-04-12T11:33:41.730Z,9.39
2023-04-12T11:34:43.564Z,8.19
2023-04-12T11:35:45.402Z,8.61
2023-04-12T11:36:47.213Z,8.18
2023-04-12T11:37:49.028Z,8.43
2023-04-12T11:38:50.879Z,7.89
2023-04-12T11:39:52.706Z,9.08
2023-04-12T11:40:54.640Z,9.22
2023-04-12T11:41:56.560Z,8.91
2023-04-12T11:42:58.391Z,8.55
2023-04-12T11:44:00.304Z,8.19
2023-04-12T11:45:06.836Z,8.22
2023-04-12T11:46:05.969Z,7.85
2023-04-12T11:47:07.864Z,8.68
2023-04-12T11:48:09.756Z,8.51
2023-04-12T11:49:11.708Z,8.35
2023-04-12T11:50:14.152Z,9.37
2023-04-12T11:51:16.232Z,8.50
2023-04-12T11:52:18.091Z,9.22
2023-04-12T11:53:19.958Z,9.59
2023-04-12T11:54:21.880Z,9.48
2023-04-12T11:55:23.778Z,9.23
2023-04-12T11:56:25.875Z,8.97
2023-04-12T11:57:27.722Z,9.11
2023-04-12T11:58:29.625Z,9.04
2023-04-12T11:59:31.533Z,9.74
2023-04-12T12:00:33.406Z,9.51
2023-04-12T12:01:35.224Z,10.04
2023-04-12T12:02:43.696Z,9.41
2023-04-12T12:03:40.894Z,9.97
2023-04-12T12:04:42.964Z,10.57
2023-04-12T12:05:45.035Z,10.75
2023-04-12T12:06:47.414Z,11.45
2023-04-12T12:07:49.696Z,12.23
2023-04-12T12:08:51.527Z,14.88
2023-04-12T12:09:53.404Z,12.34
2023-04-12T12:11:04.581Z,11.35
2023-04-12T12:11:58.934Z,10.90
2023-04-12T12:13:00.744Z,11.24
2023-04-12T12:14:02.560Z,11.27
2023-04-12T12:15:04.456Z,10.96
2023-04-12T12:16:06.811Z,11.01
2023-04-12T12:17:08.722Z,11.05
2023-04-12T12:18:10.546Z,10.65
2023-04-12T12:19:12.629Z,11.41
2023-04-12T12:20:14.704Z,10.44
2023-04-12T12:21:16.585Z,10.95
2023-04-12T12:22:18.435Z,10.77
2023-04-12T12:23:20.234Z,11.43
2023-04-12T12:24:22.091Z,11.31
2023-04-12T12:25:23.962Z,11.49
2023-04-12T12:26:25.808Z,11.56
2023-04-12T12:27:27.711Z,11.69
2023-04-12T12:28:29.602Z,11.59
2023-04-12T12:29:31.433Z,12.49
2023-04-12T12:30:33.332Z,12.51
2023-04-12T12:31:35.233Z,11.65
2023-04-12T12:32:37.387Z,12.78
2023-04-12T12:33:46.703Z,11.93
2023-04-12T12:34:43.046Z,11.05
2023-04-12T12:35:44.988Z,11.37
2023-04-12T12:36:46.768Z,11.18
2023-04-12T12:37:48.623Z,11.09
2023-04-12T12:38:50.441Z,11.04
2023-04-12T12:39:52.268Z,11.44
2023-04-12T12:40:54.112Z,11.37
2023-04-12T12:41:55.936Z,11.82
2023-04-12T12:42:57.801Z,11.58
2023-04-12T12:43:59.937Z,12.25
2023-04-12T12:45:01.882Z,11.65
2023-04-12T12:46:03.773Z,12.75
2023-04-12T12:47:14.080Z,13.30
2023-04-12T12:48:09.383Z,13.78
2023-04-12T12:49:11.259Z,13.81
2023-04-12T12:50:13.335Z,13.01
2023-04-12T12:51:15.239Z,14.71
2023-04-12T12:52:17.980Z,14.04
2023-04-12T12:53:21.883Z,16.01
2023-04-12T12:54:39.420Z,13.84
2023-04-12T12:55:27.334Z,13.69
2023-04-12T12:56:29.211Z,13.89
2023-04-12T12:57:31.067Z,14.00
2023-04-12T12:58:32.891Z,15.15
2023-04-12T12:59:34.746Z,15.25
2023-04-12T13:00:36.638Z,16.07
2023-04-12T13:01:38.698Z,15.70
2023-04-12T13:02:40.730Z,16.96
2023-04-12T13:03:42.810Z,16.99
2023-04-12T13:04:45.069Z,16.28
2023-04-12T13:05:46.921Z,16.13
2023-04-12T13:06:48.831Z,15.45
2023-04-12T13:07:50.643Z,14.10
2023-04-12T13:08:52.503Z,14.25
2023-04-12T13:09:54.341Z,12.77
2023-04-12T13:10:56.178Z,12.43
2023-04-12T13:11:58.095Z,13.40
2023-04-12T13:12:59.891Z,11.71
2023-04-12T13:14:01.725Z,11.47
2023-04-12T13:15:18.209Z,11.05
2023-04-12T13:16:07.418Z,11.14
2023-04-12T13:17:09.259Z,11.00
2023-04-12T13:18:11.177Z,10.43
2023-04-12T13:19:12.971Z,10.93
2023-04-12T13:20:15.391Z,11.41
2023-04-12T13:21:17.197Z,10.91
2023-04-12T13:22:19.077Z,11.34
2023-04-12T13:23:20.883Z,10.83
2023-04-12T13:24:22.705Z,11.90
2023-04-12T13:25:24.581Z,11.39
2023-04-12T13:26:26.419Z,10.96
2023-04-12T13:27:28.299Z,11.64
2023-04-12T13:28:30.115Z,10.62
2023-04-12T13:29:32.012Z,10.25
2023-04-12T13:30:34.070Z,10.33
2023-04-12T13:31:36.001Z,10.42
2023-04-12T13:32:37.891Z,10.30
2023-04-12T13:33:39.684Z,9.92
2023-04-12T13:34:41.576Z,10.04
2023-04-12T13:35:43.408Z,10.41
2023-04-12T13:36:45.212Z,10.23
2023-04-12T13:37:47.125Z,10.31
2023-04-12T13:38:48.938Z,10.51
2023-04-12T13:39:50.807Z,10.01